createdAt,value
2018-12-08T00:00:37.356Z,985.18
2018-12-08T00:01:37.321Z,985.06
2018-12-08T00:02:37.309Z,985.08
2018-12-08T00:03:37.295Z,985.14
2018-12-08T00:04:37.284Z,985.18
2018-12-08T00:05:37.314Z,985.18
2018-12-08T00:06:37.264Z,985.21
2018-12-08T00:07:37.253Z,985.22
2018-12-08T00:08:37.240Z,985.13
2018-12-08T00:09:37.232Z,985.19
2018-12-08T00:10:37.250Z,985.29
2018-12-08T00:11:37.208Z,985.14
2018-12-08T00:12:37.196Z,985.24
2018-12-08T00:13:37.187Z,985.24
2018-12-08T00:14:37.179Z,985.21
2018-12-08T00:15:37.185Z,985.25
2018-12-08T00:16:37.153Z,985.20
2018-12-08T00:17:37.140Z,985.26
2018-12-08T00:18:37.130Z,985.23
2018-12-08T00:19:37.145Z,985.34
2018-12-08T00:20:37.107Z,985.26
2018-12-08T00:21:37.115Z,985.25
2018-12-08T00:22:37.118Z,985.26
2018-12-08T00:23:37.076Z,985.35
2018-12-08T00:24:37.066Z,985.23
2018-12-08T00:25:37.052Z,985.31
2018-12-08T00:26:37.117Z,985.34
2018-12-08T00:27:37.054Z,985.31
2018-12-08T00:28:37.045Z,985.38
2018-12-08T00:29:37.008Z,985.37
2018-12-08T00:30:37.022Z,985.41
2018-12-08T00:31:37.000Z,985.43
2018-12-08T00:32:36.974Z,985.47
2018-12-08T00:33:36.996Z,985.48
2018-12-08T00:34:36.956Z,985.52
2018-12-08T00:35:36.948Z,985.53
2018-12-08T00:36:36.954Z,985.63
2018-12-08T00:37:36.920Z,985.53
2018-12-08T00:38:36.912Z,985.63
2018-12-08T00:39:36.899Z,985.56
2018-12-08T00:40:36.896Z,985.52
2018-12-08T00:41:36.908Z,985.63
2018-12-08T00:42:36.865Z,985.61
2018-12-08T00:43:36.856Z,985.65
2018-12-08T00:44:36.843Z,985.60
2018-12-08T00:45:36.834Z,985.66
2018-12-08T00:46:36.852Z,985.71
2018-12-08T00:47:36.812Z,985.63
2018-12-08T00:48:36.822Z,985.68
2018-12-08T00:49:36.786Z,985.71
2018-12-08T00:50:36.802Z,985.70
2018-12-08T00:51:36.769Z,985.69
2018-12-08T00:52:36.758Z,985.75
2018-12-08T00:53:36.777Z,985.77
2018-12-08T00:54:36.734Z,985.72
2018-12-08T00:55:36.735Z,985.75
2018-12-08T00:56:36.709Z,985.73
2018-12-08T00:57:36.698Z,985.75
2018-12-08T00:58:36.718Z,985.75
2018-12-08T00:59:36.684Z,985.79
2018-12-08T01:00:36.666Z,985.74
2018-12-08T01:01:36.681Z,985.76
2018-12-08T01:02:36.692Z,985.77
2018-12-08T01:03:36.634Z,985.75
2018-12-08T01:04:36.621Z,985.83
2018-12-08T01:05:36.611Z,985.85
2018-12-08T01:06:36.602Z,985.92
2018-12-08T01:07:36.603Z,985.92
2018-12-08T01:08:36.592Z,985.96
2018-12-08T01:09:36.567Z,986.00
2018-12-08T01:10:36.555Z,986.01
2018-12-08T01:11:36.571Z,986.05
2018-12-08T01:12:36.532Z,986.03
2018-12-08T01:13:36.522Z,986.04
2018-12-08T01:14:36.513Z,986.04
2018-12-08T01:15:36.524Z,986.12
2018-12-08T01:16:36.492Z,986.15
2018-12-08T01:17:36.479Z,986.19
2018-12-08T01:18:36.489Z,986.20
2018-12-08T01:19:36.456Z,986.13
2018-12-08T01:20:36.446Z,986.15
2018-12-08T01:21:36.438Z,986.09
2018-12-08T01:22:36.429Z,986.20
2018-12-08T01:23:36.435Z,986.08
2018-12-08T01:24:36.428Z,986.05
2018-12-08T01:25:36.420Z,986.12
2018-12-08T01:26:36.381Z,986.16
2018-12-08T01:27:36.366Z,986.12
2018-12-08T01:28:36.357Z,986.14
2018-12-08T01:29:36.346Z,986.19
2018-12-08T01:30:36.356Z,986.15
2018-12-08T01:31:36.322Z,986.17
2018-12-08T01:32:36.315Z,986.19
2018-12-08T01:33:36.299Z,986.15
2018-12-08T01:34:36.292Z,986.15
2018-12-08T01:35:36.305Z,986.13
2018-12-08T01:36:36.271Z,986.14
2018-12-08T01:37:36.260Z,986.10
2018-12-08T01:38:36.272Z,986.13
2018-12-08T01:39:36.242Z,986.16
2018-12-08T01:40:36.247Z,986.17
2018-12-08T01:41:36.226Z,986.07
2018-12-08T01:42:36.236Z,986.09
2018-12-08T01:43:36.194Z,986.10
2018-12-08T01:44:36.204Z,986.04
2018-12-08T01:45:36.172Z,986.07
2018-12-08T01:46:36.163Z,986.14
2018-12-08T01:47:36.152Z,986.14
2018-12-08T01:48:36.162Z,986.19
2018-12-08T01:49:36.129Z,986.17
2018-12-08T01:50:36.116Z,986.14
2018-12-08T01:51:36.105Z,986.11
2018-12-08T01:52:36.097Z,986.18
2018-12-08T01:53:36.114Z,986.21
2018-12-08T01:54:36.076Z,986.15
2018-12-08T01:55:36.060Z,986.21
2018-12-08T01:56:36.057Z,986.20
2018-12-08T01:57:36.039Z,986.26
2018-12-08T01:58:36.059Z,986.28
2018-12-08T01:59:36.018Z,986.25
2018-12-08T02:00:36.005Z,986.27
2018-12-08T02:01:35.998Z,986.25
2018-12-08T02:02:35.988Z,986.21
2018-12-08T02:03:35.997Z,986.21
2018-12-08T02:04:35.962Z,986.28
2018-12-08T02:05:35.950Z,986.28
2018-12-08T02:06:35.939Z,986.29
2018-12-08T02:07:35.943Z,986.26
2018-12-08T02:08:35.941Z,986.24
2018-12-08T02:09:35.911Z,986.20
2018-12-08T02:10:35.916Z,986.24
2018-12-08T02:11:35.895Z,986.21
2018-12-08T02:12:35.873Z,986.24
2018-12-08T02:13:35.861Z,986.21
2018-12-08T02:14:35.856Z,986.25
2018-12-08T02:15:35.880Z,986.20
2018-12-08T02:16:35.833Z,986.19
2018-12-08T02:17:35.819Z,986.19
2018-12-08T02:18:35.808Z,986.19
2018-12-08T02:19:35.795Z,986.09
2018-12-08T02:20:35.808Z,986.09
2018-12-08T02:21:35.791Z,986.14
2018-12-08T02:22:35.788Z,986.13
2018-12-08T02:23:35.749Z,986.15
2018-12-08T02:24:35.741Z,986.13
2018-12-08T02:25:35.730Z,986.12
2018-12-08T02:26:35.740Z,986.15
2018-12-08T02:27:35.707Z,986.11
2018-12-08T02:28:35.729Z,986.14
2018-12-08T02:29:35.684Z,986.17
2018-12-08T02:30:35.675Z,986.17
2018-12-08T02:31:35.698Z,986.11
2018-12-08T02:32:35.654Z,986.13
2018-12-08T02:33:35.679Z,986.08
2018-12-08T02:34:35.628Z,986.13
2018-12-08T02:35:35.619Z,986.08
2018-12-08T02:36:35.609Z,986.10
2018-12-08T02:37:35.599Z,986.05
2018-12-08T02:38:35.608Z,986.09
2018-12-08T02:39:35.577Z,986.06
2018-12-08T02:40:35.562Z,986.09
2018-12-08T02:41:35.557Z,986.06
2018-12-08T02:42:35.543Z,986.04
2018-12-08T02:43:35.552Z,986.12
2018-12-08T02:44:35.519Z,986.13
2018-12-08T02:45:35.508Z,986.15
2018-12-08T02:46:35.534Z,986.14
2018-12-08T02:47:35.487Z,986.15
2018-12-08T02:48:35.478Z,986.16
2018-12-08T02:49:35.468Z,986.17
2018-12-08T02:50:35.451Z,986.16
2018-12-08T02:51:35.471Z,986.13
2018-12-08T02:52:35.433Z,986.20
2018-12-08T02:53:35.419Z,986.17
2018-12-08T02:54:35.412Z,986.11
2018-12-08T02:55:35.397Z,986.13
2018-12-08T02:56:35.409Z,986.11
2018-12-08T02:57:35.373Z,986.09
2018-12-08T02:58:35.396Z,986.08
2018-12-08T02:59:35.416Z,986.04
2018-12-08T03:00:35.344Z,986.01
2018-12-08T03:01:35.330Z,986.04
2018-12-08T03:02:35.354Z,986.03
2018-12-08T03:03:35.309Z,986.06
2018-12-08T03:04:35.298Z,986.03
2018-12-08T03:05:35.285Z,986.07
2018-12-08T03:06:35.277Z,986.00
2018-12-08T03:07:35.286Z,985.99
2018-12-08T03:08:35.253Z,985.98
2018-12-08T03:09:35.243Z,985.94
2018-12-08T03:10:35.229Z,985.93
2018-12-08T03:11:35.228Z,985.96
2018-12-08T03:12:35.236Z,986.05
2018-12-08T03:13:35.208Z,986.10
2018-12-08T03:14:35.186Z,986.04
2018-12-08T03:15:35.174Z,986.06
2018-12-08T03:16:35.162Z,986.06
2018-12-08T03:17:35.185Z,986.09
2018-12-08T03:18:35.141Z,986.14
2018-12-08T03:19:35.135Z,986.13
2018-12-08T03:20:35.194Z,986.10
2018-12-08T03:21:35.108Z,986.09
2018-12-08T03:22:35.100Z,986.07
2018-12-08T03:23:35.090Z,986.01
2018-12-08T03:24:35.077Z,986.07
2018-12-08T03:25:35.090Z,986.07
2018-12-08T03:26:35.097Z,986.12
2018-12-08T03:27:35.042Z,986.10
2018-12-08T03:28:35.031Z,986.11
2018-12-08T03:29:35.020Z,986.15
2018-12-08T03:30:35.016Z,986.11
2018-12-08T03:31:35.037Z,986.01
2018-12-08T03:32:35.014Z,986.11
2018-12-08T03:33:34.975Z,986.05
2018-12-08T03:34:34.966Z,986.08
2018-12-08T03:35:34.956Z,986.10
2018-12-08T03:36:34.944Z,986.08
2018-12-08T03:37:34.959Z,986.12
2018-12-08T03:38:34.920Z,986.16
2018-12-08T03:39:34.936Z,986.11
2018-12-08T03:40:34.916Z,986.06
2018-12-08T03:41:34.887Z,986.14
2018-12-08T03:42:34.877Z,986.14
2018-12-08T03:43:34.866Z,986.13
2018-12-08T03:44:34.884Z,986.17
2018-12-08T03:45:34.843Z,986.15
2018-12-08T03:46:34.861Z,986.18
2018-12-08T03:47:34.826Z,986.17
2018-12-08T03:48:34.820Z,986.16
2018-12-08T03:49:34.800Z,986.12
2018-12-08T03:50:34.824Z,986.19
2018-12-08T03:51:34.779Z,986.16
2018-12-08T03:52:34.765Z,986.21
2018-12-08T03:53:34.757Z,986.24
2018-12-08T03:54:34.749Z,986.23
2018-12-08T03:55:34.755Z,986.21
2018-12-08T03:56:34.722Z,986.14
2018-12-08T03:57:34.710Z,986.24
2018-12-08T03:58:34.703Z,986.24
2018-12-08T03:59:34.715Z,986.26
2018-12-08T04:00:34.678Z,986.19
2018-12-08T04:01:34.667Z,986.17
2018-12-08T04:02:34.678Z,986.17
2018-12-08T04:03:34.681Z,986.16
2018-12-08T04:04:34.638Z,986.14
2018-12-08T04:05:34.621Z,986.18
2018-12-08T04:06:34.610Z,986.11
2018-12-08T04:07:34.601Z,986.11
2018-12-08T04:08:34.612Z,986.09
2018-12-08T04:09:34.585Z,986.08
2018-12-08T04:10:34.599Z,986.07
2018-12-08T04:11:34.555Z,986.12
2018-12-08T04:12:34.572Z,986.18
2018-12-08T04:13:34.536Z,986.12
2018-12-08T04:14:34.527Z,986.17
2018-12-08T04:15:34.524Z,986.15
2018-12-08T04:16:34.537Z,986.18
2018-12-08T04:17:34.491Z,986.15
2018-12-08T04:18:34.479Z,986.12
2018-12-08T04:19:34.472Z,986.16
2018-12-08T04:20:34.458Z,986.15
2018-12-08T04:21:34.480Z,986.17
2018-12-08T04:22:34.437Z,986.13
2018-12-08T04:23:34.425Z,986.13
2018-12-08T04:24:34.411Z,986.09
2018-12-08T04:25:34.453Z,986.04
2018-12-08T04:26:34.395Z,985.97
2018-12-08T04:27:34.382Z,986.05
2018-12-08T04:28:34.385Z,986.00
2018-12-08T04:29:34.358Z,986.04
2018-12-08T04:30:34.383Z,986.03
2018-12-08T04:31:34.336Z,986.05
2018-12-08T04:32:34.325Z,986.02
2018-12-08T04:33:34.317Z,986.05
2018-12-08T04:34:34.300Z,986.02
2018-12-08T04:35:34.314Z,986.01
2018-12-08T04:36:34.277Z,986.08
2018-12-08T04:37:34.272Z,986.08
2018-12-08T04:38:34.286Z,986.08
2018-12-08T04:39:34.255Z,986.09
2018-12-08T04:40:34.243Z,986.08
2018-12-08T04:41:34.225Z,986.11
2018-12-08T04:42:34.212Z,986.02
2018-12-08T04:43:34.240Z,986.05
2018-12-08T04:44:34.199Z,986.06
2018-12-08T04:45:34.182Z,986.02
2018-12-08T04:46:34.170Z,986.03
2018-12-08T04:47:35.384Z,986.05
2018-12-08T04:48:34.167Z,986.06
2018-12-08T04:49:34.135Z,986.05
2018-12-08T04:50:34.140Z,986.04
2018-12-08T04:51:34.118Z,986.01
2018-12-08T04:52:34.150Z,986.03
2018-12-08T04:53:34.106Z,986.07
2018-12-08T04:54:34.083Z,986.02
2018-12-08T04:55:34.069Z,986.05
2018-12-08T04:56:34.059Z,986.05
2018-12-08T04:57:34.083Z,986.05
2018-12-08T04:58:34.055Z,986.03
2018-12-08T04:59:34.029Z,986.07
2018-12-08T05:00:34.022Z,986.07
2018-12-08T05:01:34.005Z,986.10
2018-12-08T05:02:34.017Z,986.08
2018-12-08T05:03:33.984Z,986.07
2018-12-08T05:04:33.971Z,986.07
2018-12-08T05:05:33.994Z,986.10
2018-12-08T05:06:33.950Z,986.11
2018-12-08T05:07:33.942Z,986.05
2018-12-08T05:08:33.926Z,986.02
2018-12-08T05:09:33.919Z,986.03
2018-12-08T05:10:33.930Z,986.02
2018-12-08T05:11:33.892Z,985.94
2018-12-08T05:12:33.884Z,985.98
2018-12-08T05:13:33.870Z,986.02
2018-12-08T05:14:33.859Z,986.05
2018-12-08T05:15:33.956Z,986.01
2018-12-08T05:16:33.841Z,986.02
2018-12-08T05:17:33.825Z,986.01
2018-12-08T05:18:33.819Z,985.95
2018-12-08T05:19:33.806Z,985.92
2018-12-08T05:20:33.822Z,985.90
2018-12-08T05:21:33.782Z,985.90
2018-12-08T05:22:33.773Z,985.91
2018-12-08T05:23:33.776Z,985.90
2018-12-08T05:24:33.751Z,985.97
2018-12-08T05:25:33.737Z,986.03
2018-12-08T05:26:33.729Z,985.93
2018-12-08T05:27:33.717Z,985.92
2018-12-08T05:28:33.741Z,985.97
2018-12-08T05:29:33.694Z,985.94
2018-12-08T05:30:33.683Z,985.88
2018-12-08T05:31:33.672Z,985.89
2018-12-08T05:32:33.663Z,985.91
2018-12-08T05:33:33.695Z,985.83
2018-12-08T05:34:33.642Z,985.72
2018-12-08T05:35:33.628Z,985.75
2018-12-08T05:36:33.617Z,985.80
2018-12-08T05:37:33.607Z,985.76
2018-12-08T05:38:33.619Z,985.73
2018-12-08T05:39:33.584Z,985.77
2018-12-08T05:40:33.603Z,985.75
2018-12-08T05:41:33.563Z,985.74
2018-12-08T05:42:33.552Z,985.71
2018-12-08T05:43:33.559Z,985.74
2018-12-08T05:44:33.545Z,985.80
2018-12-08T05:45:33.544Z,985.74
2018-12-08T05:46:33.515Z,985.73
2018-12-08T05:47:33.496Z,985.78
2018-12-08T05:48:33.486Z,985.80
2018-12-08T05:49:33.498Z,985.73
2018-12-08T05:50:33.462Z,985.74
2018-12-08T05:51:33.454Z,985.79
2018-12-08T05:52:34.643Z,985.73
2018-12-08T05:53:33.457Z,985.76
2018-12-08T05:54:33.444Z,985.81
2018-12-08T05:55:33.411Z,985.77
2018-12-08T05:56:33.396Z,985.79
2018-12-08T05:57:33.388Z,985.72
2018-12-08T05:58:33.401Z,985.69
2018-12-08T05:59:33.410Z,985.71
2018-12-08T06:00:33.356Z,985.71
2018-12-08T06:01:33.346Z,985.72
2018-12-08T06:02:33.331Z,985.73
2018-12-08T06:03:33.320Z,985.72
2018-12-08T06:04:33.394Z,985.63
2018-12-08T06:05:33.323Z,985.69
2018-12-08T06:06:33.289Z,985.59
2018-12-08T06:07:33.283Z,985.70
2018-12-08T06:08:33.266Z,985.67
2018-12-08T06:09:33.254Z,985.59
2018-12-08T06:10:33.276Z,985.66
2018-12-08T06:11:33.236Z,985.70
2018-12-08T06:12:33.220Z,985.66
2018-12-08T06:13:33.211Z,985.68
2018-12-08T06:14:33.200Z,985.68
2018-12-08T06:15:33.214Z,985.67
2018-12-08T06:16:33.181Z,985.68
2018-12-08T06:17:33.171Z,985.72
2018-12-08T06:18:33.155Z,985.67
2018-12-08T06:19:33.145Z,985.69
2018-12-08T06:20:33.166Z,985.66
2018-12-08T06:21:33.122Z,985.64
2018-12-08T06:22:33.113Z,985.70
2018-12-08T06:23:33.100Z,985.74
2018-12-08T06:24:33.088Z,985.74
2018-12-08T06:25:33.101Z,985.66
2018-12-08T06:26:33.075Z,985.70
2018-12-08T06:27:33.055Z,985.70
2018-12-08T06:28:33.078Z,985.73
2018-12-08T06:29:33.036Z,985.69
2018-12-08T06:30:33.023Z,985.71
2018-12-08T06:31:33.011Z,985.59
2018-12-08T06:32:33.004Z,985.67
2018-12-08T06:33:33.016Z,985.69
2018-12-08T06:34:32.994Z,985.69
2018-12-08T06:35:32.967Z,985.74
2018-12-08T06:36:32.958Z,985.69
2018-12-08T06:37:32.946Z,985.70
2018-12-08T06:38:32.935Z,985.64
2018-12-08T06:39:32.951Z,985.72
2018-12-08T06:40:32.912Z,985.67
2018-12-08T06:41:32.901Z,985.67
2018-12-08T06:42:32.890Z,985.57
2018-12-08T06:43:32.880Z,985.59
2018-12-08T06:44:32.904Z,985.63
2018-12-08T06:45:32.859Z,985.67
2018-12-08T06:46:32.846Z,985.57
2018-12-08T06:47:32.836Z,985.60
2018-12-08T06:48:32.824Z,985.57
2018-12-08T06:49:32.844Z,985.55
2018-12-08T06:50:32.829Z,985.56
2018-12-08T06:51:32.795Z,985.59
2018-12-08T06:52:32.782Z,985.58
2018-12-08T06:53:32.770Z,985.62
2018-12-08T06:54:32.758Z,985.63
2018-12-08T06:55:32.785Z,985.48
2018-12-08T06:56:32.737Z,985.58
2018-12-08T06:57:32.729Z,985.59
2018-12-08T06:58:32.713Z,985.57
2018-12-08T06:59:32.704Z,985.60
2018-12-08T07:00:32.737Z,985.59
2018-12-08T07:01:32.681Z,985.55
2018-12-08T07:02:32.677Z,985.59
2018-12-08T07:03:32.662Z,985.61
2018-12-08T07:04:32.647Z,985.61
2018-12-08T07:05:32.663Z,985.57
2018-12-08T07:06:33.412Z,985.61
2018-12-08T07:07:32.615Z,985.58
2018-12-08T07:08:32.603Z,985.63
2018-12-08T07:09:32.617Z,985.62
2018-12-08T07:10:32.582Z,985.72
2018-12-08T07:11:32.592Z,985.64
2018-12-08T07:12:32.562Z,985.67
2018-12-08T07:13:32.550Z,985.59
2018-12-08T07:14:32.535Z,985.62
2018-12-08T07:15:32.552Z,985.61
2018-12-08T07:16:32.518Z,985.61
2018-12-08T07:17:32.502Z,985.60
2018-12-08T07:18:32.527Z,985.56
2018-12-08T07:19:32.482Z,985.56
2018-12-08T07:20:32.469Z,985.52
2018-12-08T07:21:32.467Z,985.55
2018-12-08T07:22:32.456Z,985.57
2018-12-08T07:23:32.454Z,985.54
2018-12-08T07:24:32.428Z,985.53
2018-12-08T07:25:32.414Z,985.60
2018-12-08T07:26:32.428Z,985.50
2018-12-08T07:27:32.427Z,985.58
2018-12-08T07:28:32.381Z,985.49
2018-12-08T07:29:32.378Z,985.59
2018-12-08T07:30:32.361Z,985.50
2018-12-08T07:31:32.350Z,985.60
2018-12-08T07:32:38.828Z,985.58
2018-12-08T07:33:33.344Z,985.54
2018-12-08T07:34:32.376Z,985.47
2018-12-08T07:35:32.304Z,985.54
2018-12-08T07:36:32.295Z,985.50
2018-12-08T07:37:32.291Z,985.45
2018-12-08T07:38:32.294Z,985.43
2018-12-08T07:39:32.260Z,985.36
2018-12-08T07:40:32.271Z,985.40
2018-12-08T07:41:32.239Z,985.45
2018-12-08T07:42:32.251Z,985.37
2018-12-08T07:43:32.243Z,985.45
2018-12-08T07:44:32.206Z,985.39
2018-12-08T07:45:32.203Z,985.39
2018-12-08T07:46:32.210Z,985.42
2018-12-08T07:47:32.173Z,985.35
2018-12-08T07:48:32.186Z,985.40
2018-12-08T07:49:32.179Z,985.32
2018-12-08T07:50:32.156Z,985.35
2018-12-08T07:51:32.126Z,985.28
2018-12-08T07:52:32.117Z,985.30
2018-12-08T07:53:32.111Z,985.22
2018-12-08T07:54:32.125Z,985.25
2018-12-08T07:55:32.099Z,985.33
2018-12-08T07:56:32.106Z,985.23
2018-12-08T07:57:32.063Z,985.28
2018-12-08T07:58:32.052Z,985.30
2018-12-08T07:59:32.040Z,985.28
2018-12-08T08:00:32.029Z,985.24
2018-12-08T08:01:32.083Z,985.29
2018-12-08T08:02:32.005Z,985.24
2018-12-08T08:03:31.995Z,985.27
2018-12-08T08:04:31.986Z,985.21
2018-12-08T08:05:31.996Z,985.16
2018-12-08T08:06:31.965Z,985.19
2018-12-08T08:07:31.974Z,985.14
2018-12-08T08:08:31.939Z,985.16
2018-12-08T08:09:31.953Z,985.11
2018-12-08T08:10:31.917Z,985.11
2018-12-08T08:11:31.907Z,985.15
2018-12-08T08:12:31.917Z,985.09
2018-12-08T08:13:31.884Z,985.07
2018-12-08T08:14:31.877Z,985.05
2018-12-08T08:15:31.863Z,985.05
2018-12-08T08:16:31.856Z,985.01
2018-12-08T08:17:31.973Z,985.02
2018-12-08T08:18:31.831Z,985.04
2018-12-08T08:19:31.846Z,985.04
2018-12-08T08:20:31.809Z,985.01
2018-12-08T08:21:31.795Z,985.04
2018-12-08T08:22:31.783Z,985.03
2018-12-08T08:23:31.778Z,985.03
2018-12-08T08:24:31.798Z,985.01
2018-12-08T08:25:31.754Z,985.09
2018-12-08T08:26:31.740Z,985.10
2018-12-08T08:27:31.812Z,985.15
2018-12-08T08:28:31.719Z,985.00
2018-12-08T08:29:31.737Z,984.98
2018-12-08T08:30:31.698Z,984.99
2018-12-08T08:31:31.685Z,985.00
2018-12-08T08:32:31.673Z,984.97
2018-12-08T08:33:31.664Z,985.02
2018-12-08T08:34:31.672Z,985.00
2018-12-08T08:35:31.641Z,984.95
2018-12-08T08:36:31.670Z,984.96
2018-12-08T08:37:31.622Z,984.79
2018-12-08T08:38:31.608Z,984.92
2018-12-08T08:39:31.597Z,984.95
2018-12-08T08:40:31.583Z,984.93
2018-12-08T08:41:31.590Z,984.94
2018-12-08T08:42:31.587Z,984.91
2018-12-08T08:43:31.553Z,985.02
2018-12-08T08:44:31.540Z,984.82
2018-12-08T08:45:31.529Z,984.89
2018-12-08T08:46:31.519Z,984.83
2018-12-08T08:47:31.543Z,984.90
2018-12-08T08:48:31.500Z,984.72
2018-12-08T08:49:31.485Z,984.79
2018-12-08T08:50:31.474Z,984.80
2018-12-08T08:51:31.469Z,984.77
2018-12-08T08:52:31.477Z,984.74
2018-12-08T08:53:31.447Z,984.77
2018-12-08T08:54:31.446Z,984.79
2018-12-08T08:55:31.421Z,984.83
2018-12-08T08:56:31.443Z,984.72
2018-12-08T08:57:31.426Z,984.77
2018-12-08T08:58:31.411Z,984.76
2018-12-08T08:59:31.380Z,984.63
2018-12-08T09:00:31.369Z,984.81
2018-12-08T09:01:31.360Z,984.66
2018-12-08T09:02:31.370Z,984.77
2018-12-08T09:03:31.372Z,984.69
2018-12-08T09:04:31.321Z,984.73
2018-12-08T09:05:31.310Z,984.71
2018-12-08T09:06:31.298Z,984.62
2018-12-08T09:07:31.315Z,984.65
2018-12-08T09:08:31.276Z,984.68
2018-12-08T09:09:31.269Z,984.66
2018-12-08T09:10:31.256Z,984.69
2018-12-08T09:11:31.280Z,984.69
2018-12-08T09:12:31.235Z,984.72
2018-12-08T09:13:31.230Z,984.65
2018-12-08T09:14:31.211Z,984.67
2018-12-08T09:15:31.228Z,984.62
2018-12-08T09:16:31.213Z,984.64
2018-12-08T09:17:31.179Z,984.67
2018-12-08T09:18:31.191Z,984.64
2018-12-08T09:19:31.172Z,984.68
2018-12-08T09:20:31.144Z,984.68
2018-12-08T09:21:31.167Z,984.67
2018-12-08T09:22:31.122Z,984.69
2018-12-08T09:23:31.113Z,984.67
2018-12-08T09:24:31.101Z,984.63
2018-12-08T09:25:31.118Z,984.71
2018-12-08T09:26:31.081Z,984.62
2018-12-08T09:27:31.094Z,984.70
2018-12-08T09:28:31.057Z,984.61
2018-12-08T09:29:31.046Z,984.41
2018-12-08T09:30:31.034Z,984.54
2018-12-08T09:31:31.027Z,984.54
2018-12-08T09:32:31.038Z,984.55
2018-12-08T09:33:31.013Z,984.58
2018-12-08T09:34:30.996Z,984.51
2018-12-08T09:35:31.005Z,984.57
2018-12-08T09:36:30.996Z,984.44
2018-12-08T09:37:30.971Z,984.47
2018-12-08T09:38:30.976Z,984.55
2018-12-08T09:39:30.967Z,984.48
2018-12-08T09:40:30.925Z,984.46
2018-12-08T09:41:30.941Z,984.51
2018-12-08T09:42:30.901Z,984.51
2018-12-08T09:43:30.930Z,984.43
2018-12-08T09:44:30.882Z,984.40
2018-12-08T09:45:30.895Z,984.47
2018-12-08T09:46:30.865Z,984.39
2018-12-08T09:47:30.848Z,984.43
2018-12-08T09:48:30.839Z,984.39
2018-12-08T09:49:30.853Z,984.37
2018-12-08T09:50:30.821Z,984.32
2018-12-08T09:51:30.802Z,984.12
2018-12-08T09:52:30.793Z,984.33
2018-12-08T09:53:30.804Z,984.45
2018-12-08T09:54:30.770Z,984.31
2018-12-08T09:55:30.763Z,984.40
2018-12-08T09:56:30.749Z,984.36
2018-12-08T09:57:30.737Z,984.32
2018-12-08T09:58:30.744Z,984.25
2018-12-08T09:59:30.716Z,984.24
2018-12-08T10:00:30.730Z,984.28
2018-12-08T10:01:30.693Z,984.23
2018-12-08T10:02:30.682Z,984.11
2018-12-08T10:03:30.709Z,984.17
2018-12-08T10:04:30.715Z,984.12
2018-12-08T10:05:30.652Z,984.19
2018-12-08T10:06:30.642Z,984.18
2018-12-08T10:07:30.636Z,984.18
2018-12-08T10:08:30.638Z,984.17
2018-12-08T10:09:30.602Z,984.24
2018-12-08T10:10:30.594Z,984.20
2018-12-08T10:11:30.605Z,984.14
2018-12-08T10:12:30.597Z,984.11
2018-12-08T10:13:30.562Z,984.05
2018-12-08T10:14:30.549Z,984.04
2018-12-08T10:15:30.539Z,983.97
2018-12-08T10:16:30.532Z,984.00
2018-12-08T10:17:30.542Z,983.96
2018-12-08T10:18:30.507Z,983.96
2018-12-08T10:19:30.494Z,983.89
2018-12-08T10:20:30.482Z,983.88
2018-12-08T10:21:30.475Z,983.99
2018-12-08T10:22:30.490Z,983.98
2018-12-08T10:23:30.450Z,984.02
2018-12-08T10:24:30.440Z,983.97
2018-12-08T10:25:30.461Z,984.08
2018-12-08T10:26:30.420Z,984.08
2018-12-08T10:27:30.406Z,984.02
2018-12-08T10:28:30.455Z,984.04
2018-12-08T10:29:30.388Z,984.07
2018-12-08T10:30:30.373Z,984.06
2018-12-08T10:31:30.366Z,984.05
2018-12-08T10:32:30.356Z,983.87
2018-12-08T10:33:30.367Z,983.94
2018-12-08T10:34:30.338Z,983.91
2018-12-08T10:35:30.324Z,983.86
2018-12-08T10:36:30.317Z,983.82
2018-12-08T10:37:30.305Z,983.85
2018-12-08T10:38:30.299Z,983.90
2018-12-08T10:39:30.272Z,983.89
2018-12-08T10:40:30.271Z,983.84
2018-12-08T10:41:30.283Z,983.77
2018-12-08T10:42:30.261Z,983.78
2018-12-08T10:43:30.233Z,983.71
2018-12-08T10:44:30.234Z,983.65
2018-12-08T10:45:30.285Z,983.68
2018-12-08T10:46:30.194Z,983.63
2018-12-08T10:47:30.183Z,983.68
2018-12-08T10:48:30.324Z,983.63
2018-12-08T10:49:30.214Z,983.62
2018-12-08T10:50:30.165Z,983.66
2018-12-08T10:51:30.138Z,983.64
2018-12-08T10:52:30.150Z,983.56
2018-12-08T10:53:30.156Z,983.50
2018-12-08T10:54:30.113Z,983.49
2018-12-08T10:55:30.095Z,983.51
2018-12-08T10:56:30.081Z,983.49
2018-12-08T10:57:30.071Z,983.52
2018-12-08T10:58:30.083Z,983.55
2018-12-08T10:59:30.086Z,983.54
2018-12-08T11:00:30.053Z,983.63
2018-12-08T11:01:30.031Z,983.56
2018-12-08T11:02:30.019Z,983.54
2018-12-08T11:03:30.004Z,983.62
2018-12-08T11:04:30.019Z,983.59
2018-12-08T11:05:29.984Z,983.60
2018-12-08T11:06:29.976Z,983.65
2018-12-08T11:07:29.996Z,983.58
2018-12-08T11:08:29.948Z,983.57
2018-12-08T11:09:29.937Z,983.61
2018-12-08T11:10:29.927Z,983.45
2018-12-08T11:11:29.927Z,983.48
2018-12-08T11:12:29.924Z,983.35
2018-12-08T11:13:29.894Z,983.42
2018-12-08T11:14:29.914Z,983.41
2018-12-08T11:15:29.894Z,983.31
2018-12-08T11:16:29.865Z,983.29
2018-12-08T11:17:29.867Z,983.34
2018-12-08T11:18:29.849Z,983.32
2018-12-08T11:19:29.852Z,983.25
2018-12-08T11:20:29.817Z,983.30
2018-12-08T11:21:29.804Z,983.32
2018-12-08T11:22:29.791Z,983.23
2018-12-08T11:23:29.809Z,983.27
2018-12-08T11:24:29.773Z,983.19
2018-12-08T11:25:29.787Z,983.24
2018-12-08T11:26:29.770Z,983.23
2018-12-08T11:27:29.736Z,983.28
2018-12-08T11:28:29.754Z,983.15
2018-12-08T11:29:29.717Z,983.06
2018-12-08T11:30:31.383Z,983.15
2018-12-08T11:31:29.692Z,983.12
2018-12-08T11:32:29.685Z,983.16
2018-12-08T11:33:29.669Z,983.14
2018-12-08T11:34:29.662Z,983.20
2018-12-08T11:35:29.715Z,983.19
2018-12-08T11:36:29.638Z,983.16
2018-12-08T11:37:29.625Z,983.19
2018-12-08T11:38:29.614Z,983.22
2018-12-08T11:39:29.606Z,983.23
2018-12-08T11:40:29.616Z,983.27
2018-12-08T11:41:29.607Z,983.25
2018-12-08T11:42:29.567Z,983.32
2018-12-08T11:43:29.557Z,983.33
2018-12-08T11:44:29.555Z,983.36
2018-12-08T11:45:29.535Z,983.40
2018-12-08T11:46:29.552Z,983.45
2018-12-08T11:47:29.515Z,983.36
2018-12-08T11:48:29.509Z,983.36
2018-12-08T11:49:29.494Z,983.34
2018-12-08T11:50:29.507Z,983.35
2018-12-08T11:51:29.496Z,983.30
2018-12-08T11:52:29.458Z,983.27
2018-12-08T11:53:29.448Z,983.23
2018-12-08T11:54:29.437Z,983.19
2018-12-08T11:55:30.439Z,983.21
2018-12-08T11:56:29.462Z,983.20
2018-12-08T11:57:29.406Z,983.20
2018-12-08T11:58:29.391Z,983.23
2018-12-08T11:59:29.380Z,983.24
2018-12-08T12:00:29.374Z,983.20
2018-12-08T12:01:29.383Z,983.23
2018-12-08T12:02:29.349Z,983.22
2018-12-08T12:03:29.337Z,983.23
2018-12-08T12:04:29.358Z,983.21
2018-12-08T12:05:29.313Z,983.13
2018-12-08T12:06:29.312Z,983.25
2018-12-08T12:07:29.296Z,983.29
2018-12-08T12:08:29.319Z,983.29
2018-12-08T12:09:29.274Z,983.30
2018-12-08T12:10:29.261Z,983.33
2018-12-08T12:11:29.252Z,983.22
2018-12-08T12:12:29.240Z,983.23
2018-12-08T12:13:29.273Z,983.27
2018-12-08T12:14:29.217Z,983.35
2018-12-08T12:15:29.209Z,983.37
2018-12-08T12:16:29.200Z,983.32
2018-12-08T12:17:29.182Z,983.34
2018-12-08T12:18:29.197Z,983.35
2018-12-08T12:19:29.162Z,983.28
2018-12-08T12:20:29.150Z,983.37
2018-12-08T12:21:29.136Z,983.30
2018-12-08T12:22:29.169Z,983.34
2018-12-08T12:23:29.115Z,983.34
2018-12-08T12:24:29.106Z,983.38
2018-12-08T12:25:29.093Z,983.43
2018-12-08T12:26:29.083Z,983.27
2018-12-08T12:27:29.098Z,983.23
2018-12-08T12:28:29.065Z,983.27